Station Historical Data
Daily Summary for February 2, 2017 Units:  Metric    English   Both
« Previous Day
Next Day »
Daily Weekly Monthly Yearly Custom
  High: Low: Average:
Temperature: 10.5 °C 5.3 °C 8.3 °C
Dew Point: 9.2 °C -0.8 °C 6.4 °C
Humidity: 94 % 46 % 89 %
Wind Speed: 27.4 km/h 0 km/h 8 km/h
Wind Gust: 45.1 km/h - -
Wind:- - SSE
Pressure: 1018.8 hPa 1015.5 hPa -
Precipitation: 0 mm    
Historical Graphs
 
 
Tabular Data for February 2, 2017
Time Temperature Dew Point Pressure Wind Wind Speed Wind Gust Humidity Rainfall Rate (Hourly) solar
00:03 10.2 °C 1.1 °C 1015.5 hPa SSE 9.7 km/h 19.3 km/h 53 % 0 mm 0.00 W/m2
00:08 10.2 °C 0.8 °C 1015.5 hPa SSE 8 km/h 12.9 km/h 52 % 0 mm 0.00 W/m2
00:13 10.2 °C 0.6 °C 1015.5 hPa SE 14.5 km/h 17.7 km/h 51 % 0 mm 0.00 W/m2
00:18 10.2 °C 0.2 °C 1015.8 hPa South 14.5 km/h 17.7 km/h 50 % 0 mm 0.00 W/m2
00:23 10.2 °C 0.2 °C 1015.8 hPa SSE 11.3 km/h 30.6 km/h 50 % 0 mm 0.00 W/m2
00:28 10.2 °C -0.3 °C 1016.1 hPa South 11.3 km/h 30.6 km/h 48 % 0 mm 0.00 W/m2
00:33 10.2 °C -0.6 °C 1016.1 hPa South 24.1 km/h 24.1 km/h 47 % 0 mm 0.00 W/m2
00:38 10.3 °C -0.8 °C 1016.1 hPa South 9.7 km/h 20.9 km/h 46 % 0 mm 0.00 W/m2
00:43 10.4 °C -0.4 °C 1016.1 hPa South 16.1 km/h 27.4 km/h 47 % 0 mm 0.00 W/m2
00:48 10.4 °C -0.7 °C 1016.1 hPa South 11.3 km/h 16.1 km/h 46 % 0 mm 0.00 W/m2
00:54 10.5 °C -0.1 °C 1016.1 hPa SW 14.5 km/h 24.1 km/h 48 % 0 mm 0.00 W/m2
00:59 10.4 °C -0.1 °C 1016.1 hPa Calm   14.5 km/h 48 % 0 mm 0.00 W/m2
01:04 10.4 °C 0.2 °C 1015.8 hPa South 8 km/h 17.7 km/h 49 % 0 mm 0.00 W/m2
01:09 10.3 °C 0.4 °C 1015.8 hPa SW 16.1 km/h 19.3 km/h 50 % 0 mm 0.00 W/m2
01:14 10.3 °C 0.6 °C 1015.5 hPa SSW 8 km/h 16.1 km/h 51 % 0 mm 0.00 W/m2
01:19 10.2 °C 1 °C 1015.5 hPa South 12.9 km/h 14.5 km/h 53 % 0 mm 0.00 W/m2
01:24 10.1 °C 1.2 °C 1015.5 hPa South 8 km/h 19.3 km/h 54 % 0 mm 0.00 W/m2
01:29 10 °C 1.4 °C 1015.5 hPa South 9.7 km/h 14.5 km/h 55 % 0 mm 0.00 W/m2
01:34 9.9 °C 1.6 °C 1015.5 hPa Calm   16.1 km/h 56 % 0 mm 0.00 W/m2
01:39 9.7 °C 1.6 °C 1015.8 hPa Calm   16.1 km/h 57 % 0 mm 0.00 W/m2
01:44 9.6 °C 1.8 °C 1015.8 hPa SSW 16.1 km/h 24.1 km/h 58 % 0 mm 0.00 W/m2
01:49 9.5 °C 1.7 °C 1016.1 hPa Calm   19.3 km/h 58 % 0 mm 0.00 W/m2
01:54 9.4 °C 1.8 °C 1016.1 hPa SSW 4.8 km/h 16.1 km/h 59 % 0 mm 0.00 W/m2
01:59 9.3 °C 1.9 °C 1016.1 hPa SSE 8 km/h 19.3 km/h 60 % 0 mm 0.00 W/m2
02:06 9.2 °C 1.8 °C 1016.1 hPa South 16.1 km/h 19.3 km/h 60 % 0 mm 0.00 W/m2
02:11 9.1 °C 1.9 °C 1016.1 hPa SSE 11.3 km/h 16.1 km/h 61 % 0 mm 0.00 W/m2
02:16 8.9 °C 1.8 °C 1016.1 hPa South 19.3 km/h 19.3 km/h 61 % 0 mm 0.00 W/m2
02:21 8.9 °C 2 °C 1016.1 hPa SE 14.5 km/h 20.9 km/h 62 % 0 mm 0.00 W/m2
02:26 8.8 °C 1.7 °C 1016.5 hPa SSE 22.5 km/h 29 km/h 61 % 0 mm 0.00 W/m2
02:31 8.8 °C 1.4 °C 1016.5 hPa SE 24.1 km/h 24.1 km/h 60 % 0 mm 0.00 W/m2
02:44 8.8 °C 2.1 °C 1016.5 hPa South 9.7 km/h 37 km/h 63 % 0 mm 0.00 W/m2
02:49 8.7 °C 2.7 °C 1016.5 hPa SSE 24.1 km/h 45.1 km/h 66 % 0 mm 0.00 W/m2
02:54 8.6 °C 3.2 °C 1016.5 hPa SSW 19.3 km/h 33.8 km/h 69 % 0 mm 0.00 W/m2
02:59 8.3 °C 3.6 °C 1016.5 hPa SSE 12.9 km/h 30.6 km/h 72 % 0 mm 0.00 W/m2
03:04 8 °C 3.4 °C 1016.5 hPa South 16.1 km/h 32.2 km/h 73 % 0 mm 0.00 W/m2
03:09 7.7 °C 3.6 °C 1016.8 hPa South 27.4 km/h 33.8 km/h 75 % 0 mm 0.00 W/m2
03:14 7.6 °C 3.8 °C 1016.8 hPa SE 22.5 km/h 22.5 km/h 77 % 0 mm 0.00 W/m2
03:19 7.3 °C 3.8 °C 1016.5 hPa SE 19.3 km/h 33.8 km/h 78 % 0 mm 0.00 W/m2
03:24 7.1 °C 3.9 °C 1016.5 hPa SE 22.5 km/h 33.8 km/h 80 % 0 mm 0.00 W/m2
03:29 6.9 °C 3.9 °C 1016.1 hPa SSE 14.5 km/h 45.1 km/h 81 % 0 mm 0.00 W/m2
03:34 6.8 °C 4.1 °C 1016.1 hPa SSE 16.1 km/h 32.2 km/h 83 % 3.3 mm 0.00 W/m2
03:39 6.6 °C 4.3 °C 1016.1 hPa SSE 17.7 km/h 25.7 km/h 85 % 3.3 mm 0.00 W/m2
03:44 6.4 °C 4.3 °C 1016.1 hPa SSE 9.7 km/h 27.4 km/h 86 % 3.05 mm 0.00 W/m2
03:49 6.3 °C 4.3 °C 1016.1 hPa SE 9.7 km/h 20.9 km/h 87 % 2.03 mm 0.00 W/m2
03:54 6.2 °C 4.3 °C 1016.1 hPa SE 19.3 km/h 20.9 km/h 88 % 2.03 mm 0.00 W/m2
03:59 6.1 °C 4.4 °C 1016.1 hPa SE 17.7 km/h 22.5 km/h 89 % 3.05 mm 0.00 W/m2
04:04 6.1 °C 4.4 °C 1015.8 hPa SE 6.4 km/h 27.4 km/h 89 % 1.78 mm 0.00 W/m2
04:09 6 °C 4.5 °C 1015.5 hPa SE 14.5 km/h 22.5 km/h 90 % 1.78 mm 0.00 W/m2
04:14 5.9 °C 4.4 °C 1015.5 hPa Calm   25.7 km/h 90 % 1.52 mm 0.00 W/m2
04:19 5.8 °C 4.3 °C 1015.8 hPa SE 9.7 km/h 20.9 km/h 90 % 1.02 mm 0.00 W/m2
04:24 5.8 °C 4.4 °C 1015.8 hPa SE 19.3 km/h 25.7 km/h 91 % 0 mm 0.00 W/m2
04:29 5.7 °C 4.4 °C 1015.8 hPa SE 3.2 km/h 19.3 km/h 91 % 0 mm 0.00 W/m2
04:34 5.7 °C 4.3 °C 1015.8 hPa ESE 3.2 km/h 17.7 km/h 91 % 0 mm 0.00 W/m2
04:39 5.7 °C 4.3 °C 1015.8 hPa SE 17.7 km/h 22.5 km/h 91 % 0 mm 0.00 W/m2
04:44 5.6 °C 4.3 °C 1015.8 hPa ESE 3.2 km/h 17.7 km/h 91 % 0 mm 0.00 W/m2
04:49 5.6 °C 4.2 °C 1015.8 hPa ESE 1.6 km/h 22.5 km/h 91 % 0 mm 0.00 W/m2
04:54 5.5 °C 4.3 °C 1015.8 hPa ESE 11.3 km/h 17.7 km/h 92 % 0 mm 0.00 W/m2
04:59 5.5 °C 4.3 °C 1015.5 hPa ESE 3.2 km/h 22.5 km/h 92 % 0 mm 0.00 W/m2
05:04 5.5 °C 4.3 °C 1015.5 hPa ESE 6.4 km/h 20.9 km/h 92 % 0 mm 0.00 W/m2
05:09 5.5 °C 4.3 °C 1015.5 hPa Calm   20.9 km/h 92 % 0 mm 0.00 W/m2
05:14 5.4 °C 4.3 °C 1015.5 hPa SE 17.7 km/h 22.5 km/h 92 % 0 mm 0.00 W/m2
05:19 5.4 °C 4.3 °C 1015.5 hPa SE 1.6 km/h 22.5 km/h 92 % 0 mm 0.00 W/m2
05:24 5.4 °C 4.3 °C 1015.8 hPa ESE 11.3 km/h 17.7 km/h 92 % 0 mm 0.00 W/m2
05:29 5.4 °C 4.3 °C 1015.8 hPa ESE 1.6 km/h 19.3 km/h 92 % 0 mm 0.00 W/m2
05:34 5.4 °C 4.3 °C 1015.8 hPa ESE 8 km/h 19.3 km/h 93 % 0 mm 0.00 W/m2
05:39 5.4 °C 4.3 °C 1015.8 hPa Calm     93 % 0 mm 0.00 W/m2
05:44 5.4 °C 4.3 °C 1016.1 hPa Calm     93 % 0 mm 0.00 W/m2
05:49 5.3 °C 4.3 °C 1016.1 hPa Calm     93 % 0 mm 0.00 W/m2
05:54 5.4 °C 4.3 °C 1016.5 hPa Calm     93 % 0 mm 0.00 W/m2
05:59 5.4 °C 4.3 °C 1016.8 hPa Calm     93 % 0 mm 0.00 W/m2
06:04 5.4 °C 4.4 °C 1016.8 hPa Calm     93 % 0 mm 0.00 W/m2
06:09 5.4 °C 4.3 °C 1016.8 hPa Calm     93 % 0 mm 0.00 W/m2
06:14 5.4 °C 4.3 °C 1016.8 hPa Calm     93 % 0 mm 0.00 W/m2
06:19 5.3 °C 4.3 °C 1016.8 hPa Calm     93 % 0 mm 0.00 W/m2
06:24 5.3 °C 4.3 °C 1016.8 hPa Calm     93 % 0 mm 0.00 W/m2
06:29 5.3 °C 4.3 °C 1016.8 hPa Calm     93 % 4.57 mm 0.00 W/m2
06:34 5.3 °C 4.3 °C 1016.8 hPa Calm     93 % 2.29 mm 0.00 W/m2
06:40 5.3 °C 4.3 °C 1017.2 hPa Calm     93 % 2.29 mm 0.00 W/m2
06:45 5.4 °C 4.3 °C 1017.2 hPa Calm     93 % 1.78 mm 0.00 W/m2
06:50 5.4 °C 4.3 °C 1017.2 hPa Calm     93 % 1.78 mm 0.00 W/m2
06:55 5.4 °C 4.3 °C 1017.2 hPa Calm     93 % 1.52 mm 0.00 W/m2
07:00 5.4 °C 4.3 °C 1017.2 hPa Calm     93 % 5.33 mm 0.00 W/m2
07:05 5.4 °C 4.4 °C 1016.8 hPa Calm     93 % 2.29 mm 0.00 W/m2
07:10 5.4 °C 4.4 °C 1016.8 hPa Calm     93 % 2.03 mm 0.00 W/m2
07:15 5.4 °C 4.4 °C 1016.8 hPa Calm     93 % 1.78 mm 0.00 W/m2
07:20 5.4 °C 4.6 °C 1016.8 hPa Calm     94 % 1.02 mm 0.00 W/m2
07:25 5.4 °C 4.6 °C 1017.2 hPa Calm     94 % 0 mm 0.00 W/m2
07:30 5.5 °C 4.6 °C 1017.5 hPa Calm     94 % 0 mm 5.00 W/m2
07:35 5.5 °C 4.6 °C 1017.2 hPa Calm     94 % 0 mm 11.00 W/m2
07:40 5.6 °C 4.7 °C 1017.2 hPa Calm     94 % 0 mm 19.00 W/m2
07:45 5.6 °C 4.7 °C 1017.2 hPa Calm     94 % 0 mm 16.00 W/m2
07:50 5.6 °C 4.7 °C 1017.2 hPa Calm     94 % 0 mm 16.00 W/m2
07:55 5.6 °C 4.7 °C 1017.2 hPa Calm     94 % 0 mm 14.00 W/m2
08:00 5.6 °C 4.7 °C 1017.5 hPa Calm     94 % 0 mm 18.00 W/m2
08:05 5.7 °C 4.8 °C 1017.5 hPa Calm     94 % 0 mm 33.00 W/m2
08:10 5.7 °C 4.8 °C 1017.5 hPa Calm   12.9 km/h 94 % 0 mm 53.00 W/m2
08:15 5.8 °C 4.9 °C 1017.5 hPa SE 9.7 km/h 11.3 km/h 94 % 0 mm 113.00 W/m2
08:20 5.8 °C 4.9 °C 1017.5 hPa SE 1.6 km/h 8 km/h 94 % 0 mm 32.00 W/m2
08:25 5.9 °C 5.1 °C 1017.5 hPa Calm   8 km/h 94 % 0 mm 39.00 W/m2
08:30 6.1 °C 5.2 °C 1017.8 hPa Calm   8 km/h 94 % 0 mm 56.00 W/m2
08:35 6.1 °C 5.2 °C 1017.8 hPa Calm     94 % 0 mm 39.00 W/m2
08:40 6.2 °C 5.3 °C 1017.8 hPa Calm     94 % 0 mm 33.00 W/m2
08:45 6.2 °C 5.3 °C 1017.8 hPa Calm   9.7 km/h 94 % 0 mm 53.00 W/m2
08:50 6.3 °C 5.4 °C 1018.2 hPa SE 8 km/h 11.3 km/h 94 % 0 mm 63.00 W/m2
08:55 6.4 °C 5.5 °C 1017.8 hPa ESE 3.2 km/h 11.3 km/h 94 % 0 mm 72.00 W/m2
09:00 6.4 °C 5.6 °C 1017.8 hPa SE 9.7 km/h 9.7 km/h 94 % 0 mm 116.00 W/m2
09:05 6.4 °C 5.6 °C 1017.8 hPa Calm   17.7 km/h 94 % 0 mm 139.00 W/m2
09:10 6.5 °C 5.6 °C 1017.8 hPa Calm   14.5 km/h 94 % 0 mm 163.00 W/m2
09:15 6.6 °C 5.7 °C 1017.8 hPa SE 12.9 km/h 14.5 km/h 94 % 0 mm 139.00 W/m2
09:20 6.7 °C 5.8 °C 1017.8 hPa SE 1.6 km/h 12.9 km/h 94 % 0 mm 135.00 W/m2
09:25 6.7 °C 5.8 °C 1018.2 hPa SE 6.4 km/h 16.1 km/h 94 % 0 mm 130.00 W/m2
09:30 6.8 °C 5.9 °C 1018.2 hPa Calm   14.5 km/h 94 % 0 mm 90.00 W/m2
09:35 6.8 °C 5.9 °C 1018.2 hPa SE 3.2 km/h 12.9 km/h 94 % 0 mm 77.00 W/m2
09:40 6.9 °C 6 °C 1018.2 hPa SE 3.2 km/h 14.5 km/h 94 % 0 mm 111.00 W/m2
09:45 6.9 °C 6.1 °C 1018.5 hPa SE 11.3 km/h 11.3 km/h 94 % 0 mm 91.00 W/m2
09:50 7 °C 6.1 °C 1018.5 hPa SSE 6.4 km/h 12.9 km/h 94 % 0 mm 54.00 W/m2
09:55 7.1 °C 6.2 °C 1018.8 hPa Calm   6.4 km/h 94 % 0 mm 98.00 W/m2
10:00 7.1 °C 6.2 °C 1018.8 hPa Calm   8 km/h 94 % 0 mm 76.00 W/m2
10:05 7.1 °C 6.2 °C 1018.8 hPa Calm   9.7 km/h 94 % 0 mm 79.00 W/m2
10:10 7.1 °C 6.2 °C 1018.5 hPa Calm   12.9 km/h 94 % 0 mm 113.00 W/m2
10:15 7.2 °C 6.3 °C 1018.8 hPa SE 6.4 km/h 12.9 km/h 94 % 1.52 mm 163.00 W/m2
10:20 7.2 °C 6.3 °C 1018.8 hPa SE 9.7 km/h 12.9 km/h 94 % 1.52 mm 213.00 W/m2
10:25 7.2 °C 6.3 °C 1018.8 hPa SE 8 km/h 14.5 km/h 94 % 1.27 mm 179.00 W/m2
10:30 7.2 °C 6.3 °C 1018.8 hPa SE 3.2 km/h 12.9 km/h 94 % 1.02 mm 144.00 W/m2
10:35 7.3 °C 6.4 °C 1018.8 hPa SE 9.7 km/h 12.9 km/h 94 % 0 mm 169.00 W/m2
10:40 7.3 °C 6.4 °C 1018.8 hPa Calm   9.7 km/h 94 % 0 mm 142.00 W/m2
10:45 7.4 °C 6.5 °C 1018.8 hPa ESE 8 km/h 14.5 km/h 94 % 0 mm 104.00 W/m2
10:50 7.4 °C 6.5 °C 1018.8 hPa SE 6.4 km/h 22.5 km/h 94 % 0 mm 153.00 W/m2
10:55 7.4 °C 6.6 °C 1018.8 hPa Calm   17.7 km/h 94 % 0 mm 149.00 W/m2
11:00 7.5 °C 6.6 °C 1018.8 hPa SE 3.2 km/h 17.7 km/h 94 % 0 mm 230.00 W/m2
11:05 7.6 °C 6.7 °C 1018.8 hPa Calm   19.3 km/h 94 % 0 mm 388.00 W/m2
11:10 7.8 °C 6.9 °C 1018.8 hPa SE 12.9 km/h 16.1 km/h 94 % 0 mm 197.00 W/m2
11:15 8 °C 7.1 °C 1018.8 hPa Calm   16.1 km/h 94 % 0 mm 118.00 W/m2
11:20 8.2 °C 7.3 °C 1018.8 hPa South 1.6 km/h 12.9 km/h 94 % 0 mm 102.00 W/m2
11:25 8.2 °C 7.3 °C 1018.8 hPa SSE 1.6 km/h 17.7 km/h 94 % 0 mm 109.00 W/m2
11:30 8.3 °C 7.4 °C 1018.8 hPa Calm   11.3 km/h 94 % 0 mm 134.00 W/m2
11:35 8.3 °C 7.4 °C 1018.8 hPa Calm   20.9 km/h 94 % 0 mm 142.00 W/m2
11:40 8.4 °C 7.5 °C 1018.8 hPa SSE 6.4 km/h 11.3 km/h 94 % 1.52 mm 123.00 W/m2
11:45 8.4 °C 7.6 °C 1018.8 hPa Calm   12.9 km/h 94 % 1.52 mm 162.00 W/m2
11:50 8.5 °C 7.6 °C 1018.8 hPa SSE 6.4 km/h 12.9 km/h 94 % 1.27 mm 213.00 W/m2
11:55 8.6 °C 7.7 °C 1018.8 hPa South 9.7 km/h 12.9 km/h 94 % 1.02 mm 148.00 W/m2
12:00 8.7 °C 7.8 °C 1018.8 hPa Calm   24.1 km/h 94 % 1.02 mm 178.00 W/m2
12:05 8.7 °C 7.8 °C 1018.5 hPa SSE 17.7 km/h 19.3 km/h 94 % 1.02 mm 163.00 W/m2
12:10 8.8 °C 7.9 °C 1018.5 hPa South 16.1 km/h 22.5 km/h 94 % 1.02 mm 135.00 W/m2
12:15 8.8 °C 7.9 °C 1018.5 hPa South 12.9 km/h 17.7 km/h 94 % 0 mm 120.00 W/m2
12:20 8.8 °C 7.9 °C 1018.5 hPa SSE 20.9 km/h 25.7 km/h 94 % 0 mm 158.00 W/m2
12:25 8.8 °C 7.9 °C 1018.5 hPa SSE 12.9 km/h 20.9 km/h 94 % 0 mm 105.00 W/m2
12:30 8.8 °C 7.9 °C 1018.5 hPa SSE 12.9 km/h 20.9 km/h 94 % 0 mm 90.00 W/m2
12:35 8.8 °C 7.9 °C 1018.5 hPa SSE 6.4 km/h 19.3 km/h 94 % 0 mm 102.00 W/m2
12:40 8.9 °C 8 °C 1018.2 hPa South 6.4 km/h 19.3 km/h 94 % 0 mm 72.00 W/m2
12:45 8.9 °C 8 °C 1018.2 hPa South 16.1 km/h 20.9 km/h 94 % 0 mm 104.00 W/m2
12:50 8.8 °C 7.9 °C 1018.2 hPa South 8 km/h 17.7 km/h 94 % 0 mm 69.00 W/m2
12:55 8.9 °C 8 °C 1018.2 hPa SSE 11.3 km/h 20.9 km/h 94 % 0 mm 62.00 W/m2
13:00 8.9 °C 8 °C 1018.2 hPa Calm   20.9 km/h 94 % 0 mm 76.00 W/m2
13:05 8.9 °C 8 °C 1018.2 hPa SSE 14.5 km/h 22.5 km/h 94 % 0 mm 67.00 W/m2
13:10 8.9 °C 8 °C 1018.2 hPa South 19.3 km/h 20.9 km/h 94 % 0 mm 76.00 W/m2
13:15 8.9 °C 8 °C 1017.8 hPa South 8 km/h 22.5 km/h 94 % 0 mm 86.00 W/m2
13:20 8.9 °C 8.1 °C 1017.8 hPa SE 20.9 km/h 27.4 km/h 94 % 0 mm 77.00 W/m2
13:25 8.9 °C 8.1 °C 1017.8 hPa SE 8 km/h 24.1 km/h 94 % 0 mm 74.00 W/m2
13:30 8.9 °C 8.1 °C 1017.8 hPa South 11.3 km/h 33.8 km/h 94 % 0 mm 62.00 W/m2
13:35 9 °C 8.1 °C 1017.8 hPa SSE 12.9 km/h 32.2 km/h 94 % 0 mm 83.00 W/m2
13:40 9 °C 8.1 °C 1017.8 hPa SSE 11.3 km/h 24.1 km/h 94 % 0 mm 67.00 W/m2
13:45 9.1 °C 8.2 °C 1017.8 hPa SSE 11.3 km/h 25.7 km/h 94 % 0 mm 90.00 W/m2
13:50 9.1 °C 8.2 °C 1017.8 hPa SSE 20.9 km/h 27.4 km/h 94 % 0 mm 111.00 W/m2
13:55 9.1 °C 8.2 °C 1017.8 hPa South 19.3 km/h 27.4 km/h 94 % 0 mm 121.00 W/m2
14:00 9.2 °C 8.3 °C 1017.5 hPa South 17.7 km/h 22.5 km/h 94 % 0 mm 107.00 W/m2
14:05 9.2 °C 8.3 °C 1017.5 hPa South 8 km/h 24.1 km/h 94 % 0 mm 135.00 W/m2
14:10 9.3 °C 8.3 °C 1017.5 hPa SE 6.4 km/h 22.5 km/h 94 % 0 mm 246.00 W/m2
14:15 9.3 °C 8.4 °C 1017.5 hPa SE 19.3 km/h 24.1 km/h 94 % 0 mm 243.00 W/m2
14:20 9.4 °C 8.5 °C 1017.5 hPa SE 14.5 km/h 27.4 km/h 94 % 0 mm 197.00 W/m2
14:25 9.6 °C 8.6 °C 1017.2 hPa SSE 14.5 km/h 29 km/h 94 % 0 mm 236.00 W/m2
14:30 9.7 °C 8.8 °C 1017.2 hPa SSE 19.3 km/h 24.1 km/h 94 % 0 mm 225.00 W/m2
14:35 9.7 °C 8.8 °C 1017.2 hPa SE 17.7 km/h 27.4 km/h 94 % 0 mm 178.00 W/m2
14:40 9.8 °C 8.9 °C 1017.2 hPa SE 12.9 km/h 24.1 km/h 94 % 0 mm 104.00 W/m2
14:45 9.8 °C 8.9 °C 1017.5 hPa SE 17.7 km/h 17.7 km/h 94 % 0 mm 67.00 W/m2
14:46 9.8 °C 8.9 °C 1017.5 hPa SE 14.5 km/h 17.7 km/h 94 % 0 mm 67.00 W/m2
14:51 9.8 °C 8.9 °C 1017.2 hPa SE 11.3 km/h 20.9 km/h 94 % 0 mm 83.00 W/m2
14:56 9.8 °C 8.9 °C 1017.2 hPa SSE 16.1 km/h 20.9 km/h 94 % 0 mm 69.00 W/m2
15:01 9.8 °C 8.9 °C 1017.2 hPa SE 9.7 km/h 22.5 km/h 94 % 0 mm 70.00 W/m2
15:06 9.8 °C 8.9 °C 1017.2 hPa SSE 22.5 km/h 24.1 km/h 94 % 0 mm 72.00 W/m2
15:11 9.8 °C 8.9 °C 1017.2 hPa SE 3.2 km/h 22.5 km/h 94 % 0 mm 105.00 W/m2
15:16 9.8 °C 8.9 °C 1017.2 hPa SE 14.5 km/h 25.7 km/h 94 % 0 mm 69.00 W/m2
15:21 9.9 °C 9 °C 1017.2 hPa SSE 1.6 km/h 19.3 km/h 94 % 0 mm 107.00 W/m2
15:26 9.9 °C 9 °C 1017.2 hPa South 17.7 km/h 20.9 km/h 94 % 0 mm 148.00 W/m2
15:31 9.9 °C 9 °C 1017.2 hPa SE 8 km/h 20.9 km/h 94 % 0 mm 158.00 W/m2
15:36 10 °C 9.1 °C 1017.2 hPa SSE 11.3 km/h 30.6 km/h 94 % 0 mm 156.00 W/m2
15:41 10.1 °C 9.1 °C 1017.2 hPa South 16.1 km/h 29 km/h 94 % 0 mm 156.00 W/m2
15:46 10.1 °C 9.2 °C 1017.2 hPa SSE 17.7 km/h 20.9 km/h 94 % 0 mm 146.00 W/m2
15:51 10.1 °C 9.2 °C 1017.2 hPa SSE 16.1 km/h 25.7 km/h 94 % 0 mm 134.00 W/m2
15:56 10.2 °C 9.2 °C 1017.2 hPa SE 6.4 km/h 27.4 km/h 94 % 0 mm 118.00 W/m2
16:01 10.2 °C 9.2 °C 1017.2 hPa SSE 9.7 km/h 22.5 km/h 94 % 0 mm 104.00 W/m2
16:06 10.2 °C 9.2 °C 1017.2 hPa SSE 14.5 km/h 20.9 km/h 94 % 0 mm 97.00 W/m2
16:11 10.2 °C 9.2 °C 1017.2 hPa SSE 11.3 km/h 19.3 km/h 94 % 0 mm 95.00 W/m2
16:16 10.2 °C 9.2 °C 1017.2 hPa SSE 8 km/h 19.3 km/h 94 % 0 mm 97.00 W/m2
16:21 10.2 °C 9.2 °C 1016.8 hPa SSE 3.2 km/h 20.9 km/h 94 % 0 mm 93.00 W/m2
16:26 10.2 °C 9.2 °C 1016.8 hPa SE 3.2 km/h 16.1 km/h 94 % 0 mm 81.00 W/m2
16:31 10.2 °C 9.2 °C 1016.8 hPa Calm   17.7 km/h 94 % 0 mm 69.00 W/m2
16:36 10.2 °C 9.2 °C 1017.2 hPa SSE 3.2 km/h 14.5 km/h 94 % 0 mm 62.00 W/m2
16:41 10.1 °C 9.2 °C 1016.8 hPa SE 8 km/h 17.7 km/h 94 % 0 mm 53.00 W/m2
16:46 10.1 °C 9.1 °C 1017.2 hPa SSE 12.9 km/h 16.1 km/h 94 % 0 mm 42.00 W/m2
16:51 10.1 °C 9.1 °C 1017.2 hPa SE 3.2 km/h 12.9 km/h 94 % 0 mm 30.00 W/m2
16:56 10 °C 9.1 °C 1017.2 hPa SSE 6.4 km/h 19.3 km/h 94 % 0 mm 21.00 W/m2
17:01 9.9 °C 9 °C 1017.2 hPa SSE 11.3 km/h 14.5 km/h 94 % 0 mm 16.00 W/m2
17:06 9.9 °C 9 °C 1017.2 hPa Calm   14.5 km/h 94 % 0 mm 14.00 W/m2
17:11 9.9 °C 9 °C 1017.2 hPa Calm     94 % 0 mm 11.00 W/m2
17:16 9.8 °C 8.9 °C 1017.2 hPa Calm     94 % 0 mm 7.00 W/m2
17:21 9.8 °C 8.9 °C 1017.2 hPa Calm     94 % 0 mm 5.00 W/m2
17:26 9.8 °C 8.9 °C 1017.2 hPa Calm     94 % 0 mm 0.00 W/m2
17:31 9.8 °C 8.9 °C 1017.2 hPa Calm     94 % 0 mm 0.00 W/m2
17:36 9.7 °C 8.8 °C 1017.2 hPa Calm     94 % 0 mm 0.00 W/m2
17:41 9.7 °C 8.8 °C 1017.2 hPa Calm     94 % 0 mm 0.00 W/m2
17:46 9.7 °C 8.8 °C 1017.5 hPa Calm     94 % 0 mm 0.00 W/m2
17:51 9.7 °C 8.8 °C 1017.5 hPa Calm     94 % 0 mm 0.00 W/m2
17:56 9.7 °C 8.8 °C 1017.5 hPa Calm     94 % 0 mm 0.00 W/m2
18:01 9.6 °C 8.7 °C 1017.5 hPa Calm     94 % 0 mm 0.00 W/m2
18:06 9.6 °C 8.6 °C 1017.5 hPa Calm     94 % 0 mm 0.00 W/m2
18:11 9.6 °C 8.6 °C 1017.5 hPa Calm     94 % 0 mm 0.00 W/m2
18:16 9.5 °C 8.6 °C 1017.5 hPa Calm     94 % 0 mm 0.00 W/m2
18:21 9.5 °C 8.6 °C 1017.5 hPa Calm     94 % 0 mm 0.00 W/m2
18:26 9.4 °C 8.5 °C 1017.5 hPa Calm     94 % 0 mm 0.00 W/m2
18:31 9.4 °C 8.5 °C 1017.5 hPa Calm     94 % 0 mm 0.00 W/m2
18:36 9.4 °C 8.5 °C 1017.5 hPa Calm     94 % 0 mm 0.00 W/m2
18:41 9.4 °C 8.4 °C 1017.2 hPa Calm     94 % 0 mm 0.00 W/m2
18:46 9.4 °C 8.4 °C 1017.5 hPa Calm     94 % 0 mm 0.00 W/m2
18:51 9.3 °C 8.4 °C 1017.5 hPa Calm     94 % 0 mm 0.00 W/m2
18:56 9.3 °C 8.4 °C 1017.5 hPa Calm     94 % 0 mm 0.00 W/m2
19:01 9.3 °C 8.4 °C 1017.5 hPa Calm     94 % 5.33 mm 0.00 W/m2
19:06 9.3 °C 8.4 °C 1017.5 hPa Calm     94 % 17.02 mm 0.00 W/m2
19:11 9.4 °C 8.4 °C 1017.2 hPa Calm     94 % 8.64 mm 0.00 W/m2
19:16 9.4 °C 8.4 °C 1017.5 hPa Calm     94 % 4.57 mm 0.00 W/m2
19:21 9.4 °C 8.4 °C 1017.2 hPa Calm     94 % 1.78 mm 0.00 W/m2
19:26 9.4 °C 8.4 °C 1017.2 hPa Calm     94 % 1.02 mm 0.00 W/m2
19:31 9.4 °C 8.4 °C 1017.2 hPa Calm     94 % 1.02 mm 0.00 W/m2
19:36 9.4 °C 8.4 °C 1017.2 hPa Calm     94 % 1.02 mm 0.00 W/m2
19:41 9.4 °C 8.4 °C 1017.2 hPa Calm     94 % 1.02 mm 0.00 W/m2
19:46 9.4 °C 8.4 °C 1016.8 hPa Calm     94 % 0 mm 0.00 W/m2
19:51 9.4 °C 8.4 °C 1017.2 hPa Calm     94 % 0 mm 0.00 W/m2
19:56 9.4 °C 8.4 °C 1017.2 hPa Calm     94 % 0 mm 0.00 W/m2
20:01 9.4 °C 8.4 °C 1017.2 hPa Calm     94 % 3.56 mm 0.00 W/m2
20:06 9.3 °C 8.4 °C 1017.2 hPa Calm     94 % 1.52 mm 0.00 W/m2
20:11 9.3 °C 8.4 °C 1017.2 hPa Calm     94 % 1.02 mm 0.00 W/m2
20:16 9.3 °C 8.4 °C 1016.8 hPa SSE 6.4 km/h 12.9 km/h 94 % 0 mm 0.00 W/m2
20:21 9.3 °C 8.4 °C 1016.8 hPa Calm   16.1 km/h 94 % 0 mm 0.00 W/m2
20:26 9.3 °C 8.4 °C 1016.8 hPa Calm   16.1 km/h 94 % 0 mm 0.00 W/m2
20:31 9.3 °C 8.3 °C 1016.8 hPa SE 1.6 km/h 16.1 km/h 94 % 0 mm 0.00 W/m2
20:36 9.3 °C 8.3 °C 1016.8 hPa SSE 11.3 km/h 17.7 km/h 94 % 0 mm 0.00 W/m2
20:41 9.3 °C 8.3 °C 1017.2 hPa SE 12.9 km/h 20.9 km/h 94 % 0 mm 0.00 W/m2
20:46 9.2 °C 8.3 °C 1016.8 hPa SSE 12.9 km/h 24.1 km/h 94 % 8.64 mm 0.00 W/m2
20:51 9.2 °C 8.3 °C 1016.8 hPa SE 16.1 km/h 27.4 km/h 94 % 4.83 mm 0.00 W/m2
20:56 9.2 °C 8.3 °C 1016.8 hPa South 12.9 km/h 33.8 km/h 94 % 34.54 mm 0.00 W/m2
21:01 9.2 °C 8.3 °C 1017.2 hPa South 3.2 km/h 20.9 km/h 94 % 8.89 mm 0.00 W/m2
21:06 9.2 °C 8.3 °C 1016.8 hPa SE 8 km/h 20.9 km/h 94 % 2.54 mm 0.00 W/m2
21:11 9.2 °C 8.3 °C 1016.8 hPa SE 14.5 km/h 25.7 km/h 94 % 2.54 mm 0.00 W/m2
21:16 9.2 °C 8.3 °C 1016.8 hPa SE 11.3 km/h 27.4 km/h 94 % 1.52 mm 0.00 W/m2
21:21 9.2 °C 8.3 °C 1016.8 hPa South 17.7 km/h 20.9 km/h 94 % 1.02 mm 0.00 W/m2
21:26 9.2 °C 8.3 °C 1017.2 hPa SE 8 km/h 22.5 km/h 94 % 0 mm 0.00 W/m2
21:31 9.2 °C 8.3 °C 1017.2 hPa South 20.9 km/h 24.1 km/h 94 % 0 mm 0.00 W/m2
21:36 9.2 °C 8.3 °C 1016.8 hPa ESE 14.5 km/h 25.7 km/h 94 % 0 mm 0.00 W/m2
21:41 9.2 °C 8.3 °C 1016.8 hPa SSE 16.1 km/h 29 km/h 94 % 0 mm 0.00 W/m2
21:46 9.2 °C 8.3 °C 1016.8 hPa SSE 24.1 km/h 33.8 km/h 94 % 0 mm 0.00 W/m2
21:51 9.2 °C 8.3 °C 1016.8 hPa SE 19.3 km/h 24.1 km/h 94 % 0 mm 0.00 W/m2
21:56 9.2 °C 8.3 °C 1016.8 hPa SSE 8 km/h 22.5 km/h 94 % 0 mm 0.00 W/m2
22:01 9.2 °C 8.3 °C 1016.8 hPa SSE 6.4 km/h 22.5 km/h 94 % 0 mm 0.00 W/m2
22:06 9.2 °C 8.3 °C 1016.8 hPa SSE 14.5 km/h 27.4 km/h 94 % 0 mm 0.00 W/m2
22:11 9.2 °C 8.3 °C 1016.8 hPa SE 9.7 km/h 32.2 km/h 94 % 0 mm 0.00 W/m2
22:16 9.2 °C 8.3 °C 1016.8 hPa SSE 14.5 km/h 27.4 km/h 94 % 0 mm 0.00 W/m2
22:21 9.2 °C 8.3 °C 1016.5 hPa SSE 12.9 km/h 32.2 km/h 94 % 0 mm 0.00 W/m2
22:26 9.2 °C 8.3 °C 1016.5 hPa SSE 6.4 km/h 30.6 km/h 94 % 0 mm 0.00 W/m2
22:31 9.2 °C 8.3 °C 1016.5 hPa SSE 11.3 km/h 33.8 km/h 94 % 0 mm 0.00 W/m2
22:36 9.2 °C 8.3 °C 1016.5 hPa SE 22.5 km/h 33.8 km/h 94 % 0 mm 0.00 W/m2
22:41 9.2 °C 8.3 °C 1016.5 hPa SSE 12.9 km/h 35.4 km/h 94 % 0 mm 0.00 W/m2
22:46 9.3 °C 8.3 °C 1016.5 hPa SSE 11.3 km/h 30.6 km/h 94 % 0 mm 0.00 W/m2
22:51 9.3 °C 8.3 °C 1016.5 hPa SSE 22.5 km/h 32.2 km/h 94 % 0 mm 0.00 W/m2
22:56 9.3 °C 8.4 °C 1016.5 hPa SE 19.3 km/h 29 km/h 94 % 0 mm 0.00 W/m2
23:01 9.3 °C 8.4 °C 1016.5 hPa ESE 25.7 km/h 30.6 km/h 94 % 0 mm 0.00 W/m2
23:06 9.3 °C 8.4 °C 1016.1 hPa SE 14.5 km/h 35.4 km/h 94 % 0 mm 0.00 W/m2
23:11 9.3 °C 8.4 °C 1016.5 hPa South 20.9 km/h 38.6 km/h 94 % 0 mm 0.00 W/m2
23:16 9.3 °C 8.4 °C 1016.1 hPa SE 14.5 km/h 32.2 km/h 94 % 0 mm 0.00 W/m2
23:21 9.3 °C 8.4 °C 1016.1 hPa SE 16.1 km/h 25.7 km/h 94 % 0 mm 0.00 W/m2
23:26 9.3 °C 8.4 °C 1016.1 hPa SE 27.4 km/h 37 km/h 94 % 0 mm 0.00 W/m2
23:31 9.3 °C 8.3 °C 1016.1 hPa SSE 20.9 km/h 37 km/h 94 % 0 mm 0.00 W/m2
23:36 9.3 °C 8.3 °C 1016.1 hPa South 11.3 km/h 33.8 km/h 94 % 0 mm 0.00 W/m2
23:41 9.3 °C 8.3 °C 1016.1 hPa SSE 14.5 km/h 27.4 km/h 94 % 0 mm 0.00 W/m2
23:46 9.3 °C 8.3 °C 1016.1 hPa SE 12.9 km/h 27.4 km/h 94 % 0 mm 0.00 W/m2
23:51 9.3 °C 8.3 °C 1016.1 hPa SSE 16.1 km/h 33.8 km/h 94 % 0 mm 0.00 W/m2
23:56 9.3 °C 8.3 °C 1016.1 hPa SE 19.3 km/h 19.3 km/h 94 % 0 mm 0.00 W/m2
Juneau County Weather
Compliments of Weather Underground - 4.75 mb
 WU-history PHP script courtesy of   Juneau County Weather.
powered by Cumulus v1.9.3 (1059)
Ambient Weather VWS v14.00
Top Contact Website Map Copyright © 2007 - 2018 Foresthillweather.com Never base important decisions on this or any weather information obtained from the Internet